createdAt,value
2018-02-08T00:01:21.988Z,40.50
2018-02-08T00:03:54.535Z,40.50
2018-02-08T00:06:27.093Z,40.40
2018-02-08T00:08:59.671Z,40.50
2018-02-08T00:11:32.256Z,40.50
2018-02-08T00:14:04.837Z,40.50
2018-02-08T00:16:37.431Z,40.50
2018-02-08T00:19:09.973Z,40.50
2018-02-08T00:21:42.496Z,40.50
2018-02-08T00:24:15.044Z,40.50
2018-02-08T00:26:47.638Z,40.50
2018-02-08T00:29:20.979Z,40.50
2018-02-08T00:31:53.462Z,40.40
2018-02-08T00:34:26.023Z,40.40
2018-02-08T00:36:59.312Z,40.40
2018-02-08T00:39:31.808Z,40.40
2018-02-08T00:42:04.257Z,40.40
2018-02-08T00:44:36.832Z,40.40
2018-02-08T00:47:09.331Z,40.40
2018-02-08T00:49:42.607Z,40.50
2018-02-08T00:52:15.096Z,40.50
2018-02-08T00:54:47.651Z,40.40
2018-02-08T00:57:20.147Z,40.40
2018-02-08T00:59:52.691Z,40.40
2018-02-08T01:02:25.285Z,40.40
2018-02-08T01:04:57.772Z,40.40
2018-02-08T01:07:30.259Z,40.40
2018-02-08T01:10:02.803Z,40.40
2018-02-08T01:12:35.375Z,40.40
2018-02-08T01:15:07.965Z,40.40
2018-02-08T01:17:40.392Z,40.40
2018-02-08T01:20:12.777Z,40.40
2018-02-08T01:22:45.292Z,40.30
2018-02-08T01:25:17.871Z,40.60
2018-02-08T01:27:50.328Z,40.40
2018-02-08T01:30:22.859Z,40.50
2018-02-08T01:32:55.380Z,40.50
2018-02-08T01:35:28.769Z,40.40
2018-02-08T01:38:01.260Z,40.40
2018-02-08T01:40:33.782Z,40.40
2018-02-08T01:43:07.073Z,40.40
2018-02-08T01:45:39.624Z,40.40
2018-02-08T01:48:12.124Z,40.40
2018-02-08T01:50:44.626Z,40.40
2018-02-08T01:53:17.108Z,40.40
2018-02-08T01:55:49.576Z,40.40
2018-02-08T01:58:22.148Z,40.40
2018-02-08T02:00:54.736Z,40.40
2018-02-08T02:03:27.991Z,40.40
2018-02-08T02:06:00.396Z,40.40
2018-02-08T02:08:33.764Z,40.50
2018-02-08T02:11:06.402Z,40.40
2018-02-08T02:13:38.844Z,40.40
2018-02-08T02:16:11.306Z,40.40
2018-02-08T02:18:43.760Z,40.40
2018-02-08T02:21:17.183Z,40.40
2018-02-08T02:23:50.464Z,40.40
2018-02-08T02:26:22.971Z,40.40
2018-02-08T02:28:55.476Z,40.40
2018-02-08T02:31:28.792Z,40.40
2018-02-08T02:34:01.420Z,40.40
2018-02-08T02:36:33.991Z,40.40
2018-02-08T02:39:06.568Z,40.50
2018-02-08T02:41:39.077Z,40.50
2018-02-08T02:44:11.552Z,40.40
2018-02-08T02:46:44.778Z,40.40
2018-02-08T02:49:17.256Z,40.40
2018-02-08T02:51:50.534Z,40.40
2018-02-08T02:54:23.808Z,40.40
2018-02-08T02:56:56.428Z,40.40
2018-02-08T02:59:28.888Z,40.40
2018-02-08T03:02:01.294Z,40.30
2018-02-08T03:04:34.628Z,40.40
2018-02-08T03:07:07.924Z,40.40
2018-02-08T03:09:41.218Z,40.40
2018-02-08T03:12:14.528Z,40.40
2018-02-08T03:14:46.971Z,40.40
2018-02-08T03:17:20.303Z,40.40
2018-02-08T03:19:52.828Z,40.40
2018-02-08T03:22:25.448Z,40.30
2018-02-08T03:24:58.028Z,40.30
2018-02-08T03:27:30.521Z,40.30
2018-02-08T03:30:03.047Z,40.40
2018-02-08T03:32:35.556Z,40.40
2018-02-08T03:35:08.103Z,40.40
2018-02-08T03:37:41.316Z,40.40
2018-02-08T03:40:14.627Z,40.40
2018-02-08T03:42:47.156Z,40.40
2018-02-08T03:45:20.341Z,40.40
2018-02-08T03:47:52.852Z,40.40
2018-02-08T03:50:25.256Z,40.40
2018-02-08T03:52:57.791Z,40.40
2018-02-08T03:55:30.307Z,40.40
2018-02-08T03:58:02.879Z,40.40
2018-02-08T04:00:35.424Z,40.40
2018-02-08T04:03:07.755Z,40.40
2018-02-08T04:05:40.200Z,40.40
2018-02-08T04:08:12.791Z,40.40
2018-02-08T04:10:45.212Z,41.10
2018-02-08T04:13:17.796Z,40.40
2018-02-08T04:15:50.378Z,40.50
2018-02-08T04:18:22.951Z,41.10
2018-02-08T04:20:56.297Z,40.50
2018-02-08T04:23:28.804Z,40.40
2018-02-08T04:26:01.367Z,40.40
2018-02-08T04:28:33.739Z,40.40
2018-02-08T04:31:07.009Z,40.40
2018-02-08T04:33:40.319Z,40.40
2018-02-08T04:36:13.584Z,40.40
2018-02-08T04:38:45.984Z,40.40
2018-02-08T04:41:18.514Z,40.40
2018-02-08T04:43:50.893Z,40.40
2018-02-08T04:46:23.418Z,40.40
2018-02-08T04:48:55.975Z,41.10
2018-02-08T04:51:28.473Z,40.40
2018-02-08T04:54:01.052Z,40.40
2018-02-08T04:56:33.616Z,40.40
2018-02-08T04:59:07.008Z,40.40
2018-02-08T05:01:39.603Z,40.50
2018-02-08T05:04:12.079Z,40.40
2018-02-08T05:06:44.596Z,40.40
2018-02-08T05:09:17.235Z,40.40
2018-02-08T05:11:50.472Z,40.40
2018-02-08T05:14:23.775Z,40.50
2018-02-08T05:16:56.220Z,40.40
2018-02-08T05:19:29.540Z,40.50
2018-02-08T05:22:02.816Z,40.70
2018-02-08T05:24:35.331Z,40.40
2018-02-08T05:27:08.716Z,40.40
2018-02-08T05:29:42.104Z,40.40
2018-02-08T05:32:14.591Z,40.40
2018-02-08T05:34:47.911Z,40.40
2018-02-08T05:37:20.420Z,40.40
2018-02-08T05:39:53.052Z,40.40
2018-02-08T05:42:26.292Z,40.40
2018-02-08T05:44:58.815Z,40.40
2018-02-08T05:47:31.364Z,40.40
2018-02-08T05:50:03.973Z,40.40
2018-02-08T05:52:36.480Z,40.40
2018-02-08T05:55:09.007Z,40.40
2018-02-08T05:57:42.263Z,40.50
2018-02-08T06:00:14.593Z,40.40
2018-02-08T06:02:47.136Z,40.40
2018-02-08T06:05:19.752Z,40.40
2018-02-08T06:07:52.292Z,40.50
2018-02-08T06:10:25.667Z,40.50
2018-02-08T06:12:58.196Z,40.40
2018-02-08T06:15:31.560Z,40.40
2018-02-08T06:18:04.170Z,40.40
2018-02-08T06:20:36.712Z,40.40
2018-02-08T06:23:09.276Z,40.40
2018-02-08T06:25:41.812Z,40.40
2018-02-08T06:28:14.291Z,40.40
2018-02-08T06:30:46.862Z,40.40
2018-02-08T06:33:20.166Z,40.60
2018-02-08T06:35:52.820Z,40.30
2018-02-08T06:38:26.139Z,40.40
2018-02-08T06:40:58.655Z,40.30
2018-02-08T06:43:31.898Z,40.40
2018-02-08T06:46:04.435Z,40.40
2018-02-08T06:48:36.943Z,40.30
2018-02-08T06:51:09.496Z,40.40
2018-02-08T06:53:42.014Z,40.40
2018-02-08T06:56:15.439Z,40.40
2018-02-08T06:58:47.908Z,40.40
2018-02-08T07:01:20.284Z,40.40
2018-02-08T07:03:52.919Z,40.40
2018-02-08T07:06:26.205Z,40.40
2018-02-08T07:08:58.811Z,40.30
2018-02-08T07:11:31.381Z,40.40
2018-02-08T07:14:04.644Z,40.40
2018-02-08T07:16:37.948Z,40.40
2018-02-08T07:19:10.436Z,40.40
2018-02-08T07:21:43.056Z,40.40
2018-02-08T07:24:16.291Z,40.40
2018-02-08T07:26:48.876Z,40.30
2018-02-08T07:29:21.479Z,40.40
2018-02-08T07:31:54.059Z,40.30
2018-02-08T07:34:27.409Z,40.40
2018-02-08T07:37:00.752Z,40.30
2018-02-08T07:39:33.252Z,40.30
2018-02-08T07:42:05.773Z,40.40
2018-02-08T07:44:38.304Z,40.30
2018-02-08T07:47:11.619Z,40.40
2018-02-08T07:49:44.801Z,40.40
2018-02-08T07:52:17.311Z,40.40
2018-02-08T07:54:49.925Z,40.40
2018-02-08T07:57:22.437Z,40.30
2018-02-08T07:59:55.008Z,40.40
2018-02-08T08:02:28.344Z,40.40
2018-02-08T08:05:00.860Z,40.40
2018-02-08T08:07:33.409Z,40.30
2018-02-08T08:10:05.912Z,40.30
2018-02-08T08:12:39.279Z,40.30
2018-02-08T08:15:11.712Z,40.30
2018-02-08T08:17:44.912Z,40.30
2018-02-08T08:20:17.357Z,40.30
2018-02-08T08:22:49.825Z,40.30
2018-02-08T08:25:22.435Z,40.30
2018-02-08T08:27:55.820Z,40.30
2018-02-08T08:30:28.311Z,40.20
2018-02-08T08:33:00.861Z,40.30
2018-02-08T08:35:33.432Z,40.30
2018-02-08T08:38:05.939Z,40.30
2018-02-08T08:40:38.468Z,40.30
2018-02-08T08:43:10.996Z,40.30
2018-02-08T08:45:44.417Z,40.30
2018-02-08T08:48:17.740Z,40.30
2018-02-08T08:50:50.329Z,40.30
2018-02-08T08:53:22.859Z,40.30
2018-02-08T08:55:55.392Z,40.30
2018-02-08T08:58:28.005Z,40.30
2018-02-08T09:01:00.544Z,40.30
2018-02-08T09:03:33.120Z,40.30
2018-02-08T09:06:05.677Z,40.30
2018-02-08T09:08:38.235Z,40.20
2018-02-08T09:11:11.536Z,40.30
2018-02-08T09:13:44.024Z,40.30
2018-02-08T09:16:16.547Z,40.20
2018-02-08T09:18:49.147Z,40.20
2018-02-08T09:21:22.451Z,40.20
2018-02-08T09:23:54.945Z,40.20
2018-02-08T09:26:28.207Z,40.20
2018-02-08T09:29:00.806Z,40.20
2018-02-08T09:31:33.392Z,40.20
2018-02-08T09:34:05.876Z,40.20
2018-02-08T09:36:39.252Z,40.50
2018-02-08T09:39:12.529Z,40.20
2018-02-08T09:41:45.812Z,40.30
2018-02-08T09:44:18.335Z,40.20
2018-02-08T09:46:50.856Z,40.20
2018-02-08T09:49:23.344Z,40.30
2018-02-08T09:51:56.636Z,40.20
2018-02-08T09:54:29.927Z,40.90
2018-02-08T09:57:03.215Z,40.80
2018-02-08T09:59:35.840Z,40.20
2018-02-08T10:02:08.289Z,40.10
2018-02-08T10:04:41.673Z,40.20
2018-02-08T10:07:14.935Z,40.20
2018-02-08T10:09:47.316Z,40.20
2018-02-08T10:12:19.823Z,40.20
2018-02-08T10:14:52.388Z,40.20
2018-02-08T10:17:24.921Z,40.20
2018-02-08T10:19:58.243Z,40.60
2018-02-08T10:22:30.796Z,40.20
2018-02-08T10:25:03.336Z,40.20
2018-02-08T10:27:35.841Z,40.20
2018-02-08T10:30:09.192Z,40.80
2018-02-08T10:32:41.838Z,40.30
2018-02-08T10:35:14.355Z,40.20
2018-02-08T10:37:47.684Z,40.20
2018-02-08T10:40:21.000Z,40.20
2018-02-08T10:42:54.280Z,40.20
2018-02-08T10:45:26.849Z,40.20
2018-02-08T10:47:59.443Z,40.20
2018-02-08T10:50:32.839Z,40.30
2018-02-08T10:53:06.122Z,40.30
2018-02-08T10:55:39.526Z,40.80
2018-02-08T10:58:11.999Z,40.20
2018-02-08T11:00:44.591Z,40.20
2018-02-08T11:03:17.027Z,40.20
2018-02-08T11:05:49.399Z,40.20
2018-02-08T11:08:21.922Z,40.20
2018-02-08T11:10:54.499Z,40.20
2018-02-08T11:13:27.015Z,40.10
2018-02-08T11:15:59.348Z,40.10
2018-02-08T11:18:31.896Z,40.10
2018-02-08T11:21:04.395Z,40.10
2018-02-08T11:23:36.898Z,40.10
2018-02-08T11:26:09.457Z,40.10
2018-02-08T11:28:41.904Z,40.10
2018-02-08T11:31:14.436Z,40.10
2018-02-08T11:33:46.988Z,40.10
2018-02-08T11:36:19.448Z,40.10
2018-02-08T11:38:52.686Z,40.20
2018-02-08T11:41:25.090Z,40.20
2018-02-08T11:43:58.444Z,40.20
2018-02-08T11:46:32.446Z,40.20
2018-02-08T11:49:04.760Z,40.20
2018-02-08T11:51:37.280Z,40.20
2018-02-08T11:54:09.801Z,40.20
2018-02-08T11:56:42.426Z,40.20
2018-02-08T11:59:15.193Z,40.20
2018-02-08T12:01:47.724Z,40.20
2018-02-08T12:04:20.296Z,40.20
2018-02-08T12:06:53.620Z,40.30
2018-02-08T12:09:26.310Z,40.20
2018-02-08T12:11:58.991Z,40.20
2018-02-08T12:14:31.996Z,40.20
2018-02-08T12:17:04.626Z,40.20
2018-02-08T12:19:37.300Z,40.30
2018-02-08T12:22:11.599Z,40.20
2018-02-08T12:24:45.115Z,40.20
2018-02-08T12:27:17.697Z,40.20
2018-02-08T12:29:50.485Z,40.20
2018-02-08T12:32:23.080Z,40.30
2018-02-08T12:34:55.788Z,40.30
2018-02-08T12:37:28.432Z,40.30
2018-02-08T12:40:00.924Z,40.20
2018-02-08T12:42:33.476Z,40.20
2018-02-08T12:45:06.109Z,40.00
2018-02-08T12:47:38.686Z,40.00
2018-02-08T12:50:11.892Z,40.20
2018-02-08T12:52:44.753Z,40.20
2018-02-08T12:55:18.083Z,40.30
2018-02-08T12:57:50.979Z,40.30
2018-02-08T13:00:23.600Z,40.30
2018-02-08T13:02:56.442Z,40.30
2018-02-08T13:05:29.100Z,40.30
2018-02-08T13:08:01.686Z,40.20
2018-02-08T13:10:34.359Z,40.30
2018-02-08T13:13:07.140Z,40.40
2018-02-08T13:15:39.832Z,40.30
2018-02-08T13:18:12.698Z,40.30
2018-02-08T13:20:45.208Z,40.30
2018-02-08T13:23:17.946Z,40.40
2018-02-08T13:25:50.312Z,40.30
2018-02-08T13:28:22.911Z,40.40
2018-02-08T13:30:55.475Z,40.40
2018-02-08T13:33:28.263Z,41.00
2018-02-08T13:36:00.743Z,40.30
2018-02-08T13:38:33.512Z,40.40
2018-02-08T13:41:06.480Z,40.40
2018-02-08T13:43:39.281Z,40.40
2018-02-08T13:46:12.970Z,40.40
2018-02-08T13:48:45.545Z,40.40
2018-02-08T13:51:18.442Z,40.40
2018-02-08T13:53:50.883Z,40.40
2018-02-08T13:56:23.713Z,40.50
2018-02-08T13:58:56.388Z,40.50
2018-02-08T14:01:29.091Z,40.50
2018-02-08T14:04:01.735Z,40.40
2018-02-08T14:06:34.406Z,40.50
2018-02-08T14:09:07.909Z,40.40
2018-02-08T14:11:40.680Z,40.40
2018-02-08T14:14:13.474Z,40.40
2018-02-08T14:16:46.718Z,40.50
2018-02-08T14:19:20.062Z,40.50
2018-02-08T14:21:53.302Z,40.50
2018-02-08T14:24:25.721Z,40.50
2018-02-08T14:26:58.145Z,40.50
2018-02-08T14:29:30.674Z,40.50
2018-02-08T14:32:04.933Z,40.50
2018-02-08T14:34:37.293Z,40.60
2018-02-08T14:37:10.525Z,40.30
2018-02-08T14:39:43.036Z,40.20
2018-02-08T14:42:15.583Z,40.30
2018-02-08T14:44:48.229Z,40.50
2018-02-08T14:47:20.588Z,40.40
2018-02-08T14:49:54.037Z,40.40
2018-02-08T14:52:26.448Z,40.40
2018-02-08T14:54:59.060Z,40.50
2018-02-08T14:57:31.507Z,40.50
2018-02-08T15:00:03.995Z,40.60
2018-02-08T15:02:36.445Z,40.70
2018-02-08T15:05:09.085Z,40.70
2018-02-08T15:07:41.612Z,40.80
2018-02-08T15:10:14.806Z,40.90
2018-02-08T15:12:48.090Z,40.90
2018-02-08T15:15:20.649Z,40.90
2018-02-08T15:17:53.168Z,41.00
2018-02-08T15:20:25.721Z,40.90
2018-02-08T15:22:58.136Z,41.00
2018-02-08T15:25:30.682Z,41.00
2018-02-08T15:28:03.186Z,41.10
2018-02-08T15:30:36.558Z,41.10
2018-02-08T15:33:09.820Z,41.20
2018-02-08T15:35:42.452Z,41.20
2018-02-08T15:38:15.772Z,41.20
2018-02-08T15:40:48.328Z,41.30
2018-02-08T15:43:21.627Z,41.20
2018-02-08T15:45:54.161Z,41.20
2018-02-08T15:48:26.739Z,41.20
2018-02-08T15:51:00.026Z,41.20
2018-02-08T15:53:33.292Z,41.20
2018-02-08T15:56:05.938Z,41.20
2018-02-08T15:58:39.172Z,41.20
2018-02-08T16:01:12.456Z,41.10
2018-02-08T16:03:44.943Z,41.10
2018-02-08T16:06:17.543Z,41.10
